sensor_id;sensor_type;location;lat;lon;timestamp;temperature;humidity
45339;DHT22;31071;51.478;5.710;2023-04-08T00:00:18;8.60;99.90
45339;DHT22;31071;51.478;5.710;2023-04-08T00:02:43;8.50;99.90
45339;DHT22;31071;51.478;5.710;2023-04-08T00:05:09;8.50;99.90
45339;DHT22;31071;51.478;5.710;2023-04-08T00:07:35;8.50;99.90
45339;DHT22;31071;51.478;5.710;2023-04-08T00:10:01;8.60;99.90
45339;DHT22;31071;51.478;5.710;2023-04-08T00:12:27;8.50;99.90
45339;DHT22;31071;51.478;5.710;2023-04-08T00:14:52;8.50;99.90
45339;DHT22;31071;51.478;5.710;2023-04-08T00:17:18;8.60;99.90
45339;DHT22;31071;51.478;5.710;2023-04-08T00:19:43;8.50;99.90
45339;DHT22;31071;51.478;5.710;2023-04-08T00:22:09;8.50;99.90
45339;DHT22;31071;51.478;5.710;2023-04-08T00:24:35;8.50;99.90
45339;DHT22;31071;51.478;5.710;2023-04-08T00:27:01;8.50;99.90
45339;DHT22;31071;51.478;5.710;2023-04-08T00:29:27;8.40;99.90
45339;DHT22;31071;51.478;5.710;2023-04-08T00:31:53;8.40;99.90
45339;DHT22;31071;51.478;5.710;2023-04-08T00:34:18;8.40;99.90
45339;DHT22;31071;51.478;5.710;2023-04-08T00:36:44;8.50;99.90
45339;DHT22;31071;51.478;5.710;2023-04-08T00:39:11;8.40;99.90
45339;DHT22;31071;51.478;5.710;2023-04-08T00:41:36;8.40;99.90
45339;DHT22;31071;51.478;5.710;2023-04-08T00:44:02;8.40;99.90
45339;DHT22;31071;51.478;5.710;2023-04-08T00:46:28;8.30;99.90
45339;DHT22;31071;51.478;5.710;2023-04-08T00:48:53;8.40;99.90
45339;DHT22;31071;51.478;5.710;2023-04-08T00:51:19;8.40;99.90
45339;DHT22;31071;51.478;5.710;2023-04-08T00:53:45;8.30;99.90
45339;DHT22;31071;51.478;5.710;2023-04-08T00:56:11;8.20;99.90
45339;DHT22;31071;51.478;5.710;2023-04-08T00:58:38;8.20;99.90
45339;DHT22;31071;51.478;5.710;2023-04-08T01:01:16;8.20;99.90
45339;DHT22;31071;51.478;5.710;2023-04-08T01:04:23;8.20;99.90
45339;DHT22;31071;51.478;5.710;2023-04-08T01:09:18;8.20;99.90
45339;DHT22;31071;51.478;5.710;2023-04-08T01:11:48;8.20;99.90
45339;DHT22;31071;51.478;5.710;2023-04-08T01:14:19;8.20;99.90
45339;DHT22;31071;51.478;5.710;2023-04-08T01:16:45;8.10;99.90
45339;DHT22;31071;51.478;5.710;2023-04-08T01:19:21;8.10;99.90
45339;DHT22;31071;51.478;5.710;2023-04-08T01:21:50;8.10;99.90
45339;DHT22;31071;51.478;5.710;2023-04-08T01:24:17;8.10;99.90
45339;DHT22;31071;51.478;5.710;2023-04-08T01:26:44;8.10;99.90
45339;DHT22;31071;51.478;5.710;2023-04-08T01:29:10;8.10;99.90
45339;DHT22;31071;51.478;5.710;2023-04-08T01:31:37;8.10;99.90
45339;DHT22;31071;51.478;5.710;2023-04-08T01:34:04;8.30;99.90
45339;DHT22;31071;51.478;5.710;2023-04-08T01:36:31;8.10;99.90
45339;DHT22;31071;51.478;5.710;2023-04-08T01:38:59;8.20;99.90
45339;DHT22;31071;51.478;5.710;2023-04-08T01:41:25;8.20;99.90
45339;DHT22;31071;51.478;5.710;2023-04-08T01:43:52;8.20;99.90
45339;DHT22;31071;51.478;5.710;2023-04-08T01:46:19;8.20;99.90
45339;DHT22;31071;51.478;5.710;2023-04-08T01:48:46;8.20;99.90
45339;DHT22;31071;51.478;5.710;2023-04-08T01:51:14;8.20;99.90
45339;DHT22;31071;51.478;5.710;2023-04-08T01:53:40;8.20;99.90
45339;DHT22;31071;51.478;5.710;2023-04-08T01:56:11;8.20;99.90
45339;DHT22;31071;51.478;5.710;2023-04-08T01:58:40;8.30;99.90
45339;DHT22;31071;51.478;5.710;2023-04-08T02:01:11;8.40;99.90
45339;DHT22;31071;51.478;5.710;2023-04-08T02:03:40;8.30;99.90
45339;DHT22;31071;51.478;5.710;2023-04-08T02:06:07;8.20;99.90
45339;DHT22;31071;51.478;5.710;2023-04-08T02:08:34;8.20;99.90
45339;DHT22;31071;51.478;5.710;2023-04-08T02:11:01;8.20;99.90
45339;DHT22;31071;51.478;5.710;2023-04-08T02:13:28;8.10;99.90
45339;DHT22;31071;51.478;5.710;2023-04-08T02:16:04;8.10;99.90
45339;DHT22;31071;51.478;5.710;2023-04-08T02:18:32;8.10;99.90
45339;DHT22;31071;51.478;5.710;2023-04-08T02:21:06;8.10;99.90
45339;DHT22;31071;51.478;5.710;2023-04-08T02:23:34;8.10;99.90
45339;DHT22;31071;51.478;5.710;2023-04-08T02:26:03;8.10;99.90
45339;DHT22;31071;51.478;5.710;2023-04-08T02:28:31;8.10;99.90
45339;DHT22;31071;51.478;5.710;2023-04-08T02:30:58;8.10;99.90
45339;DHT22;31071;51.478;5.710;2023-04-08T02:33:26;8.10;99.90
45339;DHT22;31071;51.478;5.710;2023-04-08T02:35:52;8.10;99.90
45339;DHT22;31071;51.478;5.710;2023-04-08T02:38:19;8.10;99.90
45339;DHT22;31071;51.478;5.710;2023-04-08T02:40:45;8.10;99.90
45339;DHT22;31071;51.478;5.710;2023-04-08T02:43:13;8.00;99.90
45339;DHT22;31071;51.478;5.710;2023-04-08T02:45:41;8.10;99.90
45339;DHT22;31071;51.478;5.710;2023-04-08T02:48:07;8.10;99.90
45339;DHT22;31071;51.478;5.710;2023-04-08T02:50:32;8.10;99.90
45339;DHT22;31071;51.478;5.710;2023-04-08T02:52:58;8.20;99.90
45339;DHT22;31071;51.478;5.710;2023-04-08T02:55:23;8.10;99.90
45339;DHT22;31071;51.478;5.710;2023-04-08T02:57:49;8.10;99.90
45339;DHT22;31071;51.478;5.710;2023-04-08T03:00:16;8.20;99.90
45339;DHT22;31071;51.478;5.710;2023-04-08T03:02:41;8.20;99.90
45339;DHT22;31071;51.478;5.710;2023-04-08T03:05:07;8.10;99.90
45339;DHT22;31071;51.478;5.710;2023-04-08T03:07:34;8.10;99.90
45339;DHT22;31071;51.478;5.710;2023-04-08T03:09:59;8.20;99.90
45339;DHT22;31071;51.478;5.710;2023-04-08T03:12:25;8.20;99.90
45339;DHT22;31071;51.478;5.710;2023-04-08T03:14:53;8.20;99.90
45339;DHT22;31071;51.478;5.710;2023-04-08T03:17:19;8.10;99.90
45339;DHT22;31071;51.478;5.710;2023-04-08T03:19:45;8.10;99.90
45339;DHT22;31071;51.478;5.710;2023-04-08T03:22:12;8.10;99.90
45339;DHT22;31071;51.478;5.710;2023-04-08T03:24:38;8.10;99.90
45339;DHT22;31071;51.478;5.710;2023-04-08T03:27:04;8.20;99.90
45339;DHT22;31071;51.478;5.710;2023-04-08T03:29:29;8.10;99.90
45339;DHT22;31071;51.478;5.710;2023-04-08T03:31:55;8.10;99.90
45339;DHT22;31071;51.478;5.710;2023-04-08T03:34:20;8.10;99.90
45339;DHT22;31071;51.478;5.710;2023-04-08T03:36:46;8.10;99.90
45339;DHT22;31071;51.478;5.710;2023-04-08T03:39:11;8.10;99.90
45339;DHT22;31071;51.478;5.710;2023-04-08T03:41:37;8.10;99.90
45339;DHT22;31071;51.478;5.710;2023-04-08T03:44:03;8.10;99.90
45339;DHT22;31071;51.478;5.710;2023-04-08T03:46:28;8.10;99.90
45339;DHT22;31071;51.478;5.710;2023-04-08T03:48:55;8.10;99.90
45339;DHT22;31071;51.478;5.710;2023-04-08T03:51:20;8.00;99.90
45339;DHT22;31071;51.478;5.710;2023-04-08T03:53:46;7.90;99.90
45339;DHT22;31071;51.478;5.710;2023-04-08T03:56:12;7.90;99.90
45339;DHT22;31071;51.478;5.710;2023-04-08T03:58:38;8.00;99.90
45339;DHT22;31071;51.478;5.710;2023-04-08T04:01:03;8.00;99.90
45339;DHT22;31071;51.478;5.710;2023-04-08T04:03:29;8.00;99.90
45339;DHT22;31071;51.478;5.710;2023-04-08T04:05:54;7.80;99.90
45339;DHT22;31071;51.478;5.710;2023-04-08T04:08:20;7.80;99.90
45339;DHT22;31071;51.478;5.710;2023-04-08T04:10:45;7.70;99.90
45339;DHT22;31071;51.478;5.710;2023-04-08T04:13:11;7.60;99.90
45339;DHT22;31071;51.478;5.710;2023-04-08T04:15:38;7.60;99.90
45339;DHT22;31071;51.478;5.710;2023-04-08T04:18:04;7.70;99.90
45339;DHT22;31071;51.478;5.710;2023-04-08T04:20:30;7.60;99.90
45339;DHT22;31071;51.478;5.710;2023-04-08T04:22:55;7.50;99.90
45339;DHT22;31071;51.478;5.710;2023-04-08T04:25:21;7.40;99.90
45339;DHT22;31071;51.478;5.710;2023-04-08T04:27:46;7.40;99.90
45339;DHT22;31071;51.478;5.710;2023-04-08T04:30:12;7.50;99.90
45339;DHT22;31071;51.478;5.710;2023-04-08T04:32:40;7.50;99.90
45339;DHT22;31071;51.478;5.710;2023-04-08T04:35:10;7.40;99.90
45339;DHT22;31071;51.478;5.710;2023-04-08T04:37:36;7.40;99.90
45339;DHT22;31071;51.478;5.710;2023-04-08T04:40:03;7.40;99.90
45339;DHT22;31071;51.478;5.710;2023-04-08T04:42:29;7.50;99.90
45339;DHT22;31071;51.478;5.710;2023-04-08T04:44:55;7.40;99.90
45339;DHT22;31071;51.478;5.710;2023-04-08T04:47:20;7.50;99.90
45339;DHT22;31071;51.478;5.710;2023-04-08T04:49:46;7.40;99.90
45339;DHT22;31071;51.478;5.710;2023-04-08T04:52:11;7.60;99.90
45339;DHT22;31071;51.478;5.710;2023-04-08T04:54:37;7.50;99.90
45339;DHT22;31071;51.478;5.710;2023-04-08T04:57:02;7.50;99.90
45339;DHT22;31071;51.478;5.710;2023-04-08T04:59:28;7.60;99.90
45339;DHT22;31071;51.478;5.710;2023-04-08T05:01:53;7.60;99.90
45339;DHT22;31071;51.478;5.710;2023-04-08T05:04:22;7.60;99.90
45339;DHT22;31071;51.478;5.710;2023-04-08T05:06:48;7.60;99.90
45339;DHT22;31071;51.478;5.710;2023-04-08T05:09:13;7.60;99.90
45339;DHT22;31071;51.478;5.710;2023-04-08T05:11:39;7.60;99.90
45339;DHT22;31071;51.478;5.710;2023-04-08T05:14:04;7.60;99.90
45339;DHT22;31071;51.478;5.710;2023-04-08T05:16:31;7.70;99.90
45339;DHT22;31071;51.478;5.710;2023-04-08T05:18:56;7.70;99.90
45339;DHT22;31071;51.478;5.710;2023-04-08T05:21:22;7.70;99.90
45339;DHT22;31071;51.478;5.710;2023-04-08T05:23:48;7.70;99.90
45339;DHT22;31071;51.478;5.710;2023-04-08T05:26:15;7.70;99.90
45339;DHT22;31071;51.478;5.710;2023-04-08T05:28:41;7.80;99.90
45339;DHT22;31071;51.478;5.710;2023-04-08T05:31:06;7.80;99.90
45339;DHT22;31071;51.478;5.710;2023-04-08T05:33:32;7.80;99.90
45339;DHT22;31071;51.478;5.710;2023-04-08T05:35:57;7.80;99.90
45339;DHT22;31071;51.478;5.710;2023-04-08T05:38:23;7.80;99.90
45339;DHT22;31071;51.478;5.710;2023-04-08T05:40:48;7.90;99.90
45339;DHT22;31071;51.478;5.710;2023-04-08T05:43:14;7.90;99.90
45339;DHT22;31071;51.478;5.710;2023-04-08T05:45:40;7.90;99.90
45339;DHT22;31071;51.478;5.710;2023-04-08T05:48:05;8.00;99.90
45339;DHT22;31071;51.478;5.710;2023-04-08T05:50:33;8.00;99.90
45339;DHT22;31071;51.478;5.710;2023-04-08T05:52:59;8.10;99.90
45339;DHT22;31071;51.478;5.710;2023-04-08T05:55:24;8.20;99.90
45339;DHT22;31071;51.478;5.710;2023-04-08T05:57:50;8.20;99.90
45339;DHT22;31071;51.478;5.710;2023-04-08T06:00:15;8.30;99.90
45339;DHT22;31071;51.478;5.710;2023-04-08T06:02:41;8.30;99.90
45339;DHT22;31071;51.478;5.710;2023-04-08T06:05:08;8.40;99.90
45339;DHT22;31071;51.478;5.710;2023-04-08T06:07:34;8.40;99.90
45339;DHT22;31071;51.478;5.710;2023-04-08T06:10:00;8.30;99.90
45339;DHT22;31071;51.478;5.710;2023-04-08T06:12:25;8.30;99.90
45339;DHT22;31071;51.478;5.710;2023-04-08T06:14:54;8.40;99.90
45339;DHT22;31071;51.478;5.710;2023-04-08T06:17:27;8.60;99.90
45339;DHT22;31071;51.478;5.710;2023-04-08T06:19:52;8.70;99.90
45339;DHT22;31071;51.478;5.710;2023-04-08T06:22:18;8.70;99.90
45339;DHT22;31071;51.478;5.710;2023-04-08T06:24:45;10.10;99.90
45339;DHT22;31071;51.478;5.710;2023-04-08T06:27:11;8.80;99.90
45339;DHT22;31071;51.478;5.710;2023-04-08T06:29:37;8.60;99.90
45339;DHT22;31071;51.478;5.710;2023-04-08T06:32:02;9.00;99.90
45339;DHT22;31071;51.478;5.710;2023-04-08T06:34:28;8.90;99.90
45339;DHT22;31071;51.478;5.710;2023-04-08T06:36:53;10.30;99.90
45339;DHT22;31071;51.478;5.710;2023-04-08T06:39:19;10.50;99.90
45339;DHT22;31071;51.478;5.710;2023-04-08T06:41:45;8.00;99.90
45339;DHT22;31071;51.478;5.710;2023-04-08T06:44:11;8.20;99.90
45339;DHT22;31071;51.478;5.710;2023-04-08T06:46:36;11.00;99.90
45339;DHT22;31071;51.478;5.710;2023-04-08T06:49:02;9.30;99.90
45339;DHT22;31071;51.478;5.710;2023-04-08T06:51:28;10.50;99.90
45339;DHT22;31071;51.478;5.710;2023-04-08T06:53:55;10.10;99.90
45339;DHT22;31071;51.478;5.710;2023-04-08T06:56:21;10.80;99.90
45339;DHT22;31071;51.478;5.710;2023-04-08T06:58:47;10.70;99.90
45339;DHT22;31071;51.478;5.710;2023-04-08T07:01:13;9.90;99.90
45339;DHT22;31071;51.478;5.710;2023-04-08T07:03:40;9.70;99.90
45339;DHT22;31071;51.478;5.710;2023-04-08T07:06:06;10.90;99.90
45339;DHT22;31071;51.478;5.710;2023-04-08T07:08:31;10.70;99.90
45339;DHT22;31071;51.478;5.710;2023-04-08T07:10:57;11.00;99.90
45339;DHT22;31071;51.478;5.710;2023-04-08T07:13:27;11.30;99.90
45339;DHT22;31071;51.478;5.710;2023-04-08T07:15:53;9.40;99.90
45339;DHT22;31071;51.478;5.710;2023-04-08T07:18:19;10.60;99.90
45339;DHT22;31071;51.478;5.710;2023-04-08T07:20:50;11.00;99.90
45339;DHT22;31071;51.478;5.710;2023-04-08T07:23:17;10.10;99.90
45339;DHT22;31071;51.478;5.710;2023-04-08T07:25:43;9.60;99.90
45339;DHT22;31071;51.478;5.710;2023-04-08T07:28:11;10.80;99.90
45339;DHT22;31071;51.478;5.710;2023-04-08T07:30:36;11.10;99.90
45339;DHT22;31071;51.478;5.710;2023-04-08T07:33:02;10.30;99.90
45339;DHT22;31071;51.478;5.710;2023-04-08T07:35:30;9.50;99.90
45339;DHT22;31071;51.478;5.710;2023-04-08T07:37:56;9.70;99.90
45339;DHT22;31071;51.478;5.710;2023-04-08T07:40:22;11.30;99.90
45339;DHT22;31071;51.478;5.710;2023-04-08T07:42:48;10.90;99.90
45339;DHT22;31071;51.478;5.710;2023-04-08T07:45:14;11.00;99.90
45339;DHT22;31071;51.478;5.710;2023-04-08T07:47:39;10.00;99.90
45339;DHT22;31071;51.478;5.710;2023-04-08T07:50:06;11.30;99.90
45339;DHT22;31071;51.478;5.710;2023-04-08T07:52:32;9.70;99.90
45339;DHT22;31071;51.478;5.710;2023-04-08T07:54:58;10.90;99.90
45339;DHT22;31071;51.478;5.710;2023-04-08T07:57:25;10.10;99.90
45339;DHT22;31071;51.478;5.710;2023-04-08T07:59:50;9.40;99.90
45339;DHT22;31071;51.478;5.710;2023-04-08T08:02:16;10.40;99.90
45339;DHT22;31071;51.478;5.710;2023-04-08T08:04:41;10.50;99.90
45339;DHT22;31071;51.478;5.710;2023-04-08T08:07:07;9.50;99.90
45339;DHT22;31071;51.478;5.710;2023-04-08T08:09:33;9.30;99.90
45339;DHT22;31071;51.478;5.710;2023-04-08T08:12:00;10.30;99.90
45339;DHT22;31071;51.478;5.710;2023-04-08T08:14:26;10.80;99.90
45339;DHT22;31071;51.478;5.710;2023-04-08T08:16:52;10.90;99.90
45339;DHT22;31071;51.478;5.710;2023-04-08T08:19:19;11.50;99.90
45339;DHT22;31071;51.478;5.710;2023-04-08T08:21:45;11.30;99.90
45339;DHT22;31071;51.478;5.710;2023-04-08T08:24:12;11.60;99.90
45339;DHT22;31071;51.478;5.710;2023-04-08T08:26:37;12.00;99.90
45339;DHT22;31071;51.478;5.710;2023-04-08T08:29:04;11.50;99.90
45339;DHT22;31071;51.478;5.710;2023-04-08T08:31:33;10.20;99.90
45339;DHT22;31071;51.478;5.710;2023-04-08T08:33:59;11.50;99.90
45339;DHT22;31071;51.478;5.710;2023-04-08T08:36:25;11.60;99.90
45339;DHT22;31071;51.478;5.710;2023-04-08T08:38:53;9.80;99.90
45339;DHT22;31071;51.478;5.710;2023-04-08T08:41:20;11.10;99.90
45339;DHT22;31071;51.478;5.710;2023-04-08T08:43:45;11.90;99.90
45339;DHT22;31071;51.478;5.710;2023-04-08T08:46:15;11.90;99.90
45339;DHT22;31071;51.478;5.710;2023-04-08T08:48:41;11.00;99.90
45339;DHT22;31071;51.478;5.710;2023-04-08T08:51:11;10.30;99.90
45339;DHT22;31071;51.478;5.710;2023-04-08T08:53:41;10.30;99.90
45339;DHT22;31071;51.478;5.710;2023-04-08T08:56:10;10.70;99.90
45339;DHT22;31071;51.478;5.710;2023-04-08T08:58:36;10.40;99.90
45339;DHT22;31071;51.478;5.710;2023-04-08T09:01:33;10.50;99.90
45339;DHT22;31071;51.478;5.710;2023-04-08T09:04:19;10.40;99.90
45339;DHT22;31071;51.478;5.710;2023-04-08T09:06:49;11.10;99.90
45339;DHT22;31071;51.478;5.710;2023-04-08T09:09:49;11.00;99.90
45339;DHT22;31071;51.478;5.710;2023-04-08T09:12:15;10.60;99.90
45339;DHT22;31071;51.478;5.710;2023-04-08T09:14:41;10.20;99.90
45339;DHT22;31071;51.478;5.710;2023-04-08T09:17:07;10.50;99.90
45339;DHT22;31071;51.478;5.710;2023-04-08T09:19:33;10.80;99.90
45339;DHT22;31071;51.478;5.710;2023-04-08T09:22:05;11.30;99.90
45339;DHT22;31071;51.478;5.710;2023-04-08T09:24:31;10.60;99.90
45339;DHT22;31071;51.478;5.710;2023-04-08T09:26:57;10.40;99.90
45339;DHT22;31071;51.478;5.710;2023-04-08T09:29:24;10.60;99.90
45339;DHT22;31071;51.478;5.710;2023-04-08T09:31:55;10.90;99.90
45339;DHT22;31071;51.478;5.710;2023-04-08T09:34:21;11.00;99.90
45339;DHT22;31071;51.478;5.710;2023-04-08T09:36:48;11.10;99.90
45339;DHT22;31071;51.478;5.710;2023-04-08T09:39:14;11.40;99.90
45339;DHT22;31071;51.478;5.710;2023-04-08T09:41:40;11.40;99.90
45339;DHT22;31071;51.478;5.710;2023-04-08T09:44:08;11.70;99.90
45339;DHT22;31071;51.478;5.710;2023-04-08T09:52:05;11.60;99.90
45339;DHT22;31071;51.478;5.710;2023-04-08T09:55:01;11.80;99.90
45339;DHT22;31071;51.478;5.710;2023-04-08T10:00:23;12.90;99.90
45339;DHT22;31071;51.478;5.710;2023-04-08T10:05:26;13.00;99.90
45339;DHT22;31071;51.478;5.710;2023-04-08T10:07:52;12.40;99.90
45339;DHT22;31071;51.478;5.710;2023-04-08T10:10:20;11.90;99.90
45339;DHT22;31071;51.478;5.710;2023-04-08T10:12:46;12.00;99.90
45339;DHT22;31071;51.478;5.710;2023-04-08T10:15:28;12.70;99.90
45339;DHT22;31071;51.478;5.710;2023-04-08T10:23:13;12.50;99.90
45339;DHT22;31071;51.478;5.710;2023-04-08T10:25:46;11.80;99.90
45339;DHT22;31071;51.478;5.710;2023-04-08T10:28:32;11.80;99.90
45339;DHT22;31071;51.478;5.710;2023-04-08T10:30:58;11.70;99.90
45339;DHT22;31071;51.478;5.710;2023-04-08T10:33:30;11.60;99.90
45339;DHT22;31071;51.478;5.710;2023-04-08T10:36:09;11.80;99.90
45339;DHT22;31071;51.478;5.710;2023-04-08T10:39:00;14.00;99.90
45339;DHT22;31071;51.478;5.710;2023-04-08T10:42:00;14.70;99.90
45339;DHT22;31071;51.478;5.710;2023-04-08T10:44:29;14.80;99.90
45339;DHT22;31071;51.478;5.710;2023-04-08T10:46:55;16.30;99.50
45339;DHT22;31071;51.478;5.710;2023-04-08T10:54:21;19.10;89.10
45339;DHT22;31071;51.478;5.710;2023-04-08T10:56:51;17.00;91.80
45339;DHT22;31071;51.478;5.710;2023-04-08T10:59:30;15.80;95.60
45339;DHT22;31071;51.478;5.710;2023-04-08T11:01:57;15.90;98.40
45339;DHT22;31071;51.478;5.710;2023-04-08T11:04:29;15.90;97.50
45339;DHT22;31071;51.478;5.710;2023-04-08T11:06:55;16.10;95.30
45339;DHT22;31071;51.478;5.710;2023-04-08T11:09:21;18.40;93.10
45339;DHT22;31071;51.478;5.710;2023-04-08T11:11:46;18.50;91.50
45339;DHT22;31071;51.478;5.710;2023-04-08T11:14:12;19.10;90.20
45339;DHT22;31071;51.478;5.710;2023-04-08T11:16:38;19.40;85.30
45339;DHT22;31071;51.478;5.710;2023-04-08T11:19:05;18.70;88.90
45339;DHT22;31071;51.478;5.710;2023-04-08T11:21:33;17.70;90.50
45339;DHT22;31071;51.478;5.710;2023-04-08T11:23:59;17.00;90.90
45339;DHT22;31071;51.478;5.710;2023-04-08T11:26:25;17.90;90.80
45339;DHT22;31071;51.478;5.710;2023-04-08T11:28:51;18.00;91.90
45339;DHT22;31071;51.478;5.710;2023-04-08T11:31:18;18.40;90.00
45339;DHT22;31071;51.478;5.710;2023-04-08T11:33:46;18.50;90.30
45339;DHT22;31071;51.478;5.710;2023-04-08T11:36:12;19.20;85.90
45339;DHT22;31071;51.478;5.710;2023-04-08T11:38:39;19.30;80.70
45339;DHT22;31071;51.478;5.710;2023-04-08T11:41:06;19.40;82.30
45339;DHT22;31071;51.478;5.710;2023-04-08T11:43:31;20.40;81.00
45339;DHT22;31071;51.478;5.710;2023-04-08T11:45:57;21.00;76.60
45339;DHT22;31071;51.478;5.710;2023-04-08T11:48:23;21.00;78.10
45339;DHT22;31071;51.478;5.710;2023-04-08T11:51:07;22.00;73.10
45339;DHT22;31071;51.478;5.710;2023-04-08T11:53:34;22.10;71.50
45339;DHT22;31071;51.478;5.710;2023-04-08T11:56:17;20.70;69.10
45339;DHT22;31071;51.478;5.710;2023-04-08T11:58:43;19.10;72.60
45339;DHT22;31071;51.478;5.710;2023-04-08T12:01:09;19.90;74.50
45339;DHT22;31071;51.478;5.710;2023-04-08T12:03:34;21.40;68.20
45339;DHT22;31071;51.478;5.710;2023-04-08T12:06:00;23.40;64.80
45339;DHT22;31071;51.478;5.710;2023-04-08T12:08:26;23.80;62.50
45339;DHT22;31071;51.478;5.710;2023-04-08T12:10:52;23.00;64.80
45339;DHT22;31071;51.478;5.710;2023-04-08T12:13:18;23.10;62.20
45339;DHT22;31071;51.478;5.710;2023-04-08T12:15:43;22.10;63.00
45339;DHT22;31071;51.478;5.710;2023-04-08T12:18:09;22.60;62.30
45339;DHT22;31071;51.478;5.710;2023-04-08T12:20:35;22.70;60.90
45339;DHT22;31071;51.478;5.710;2023-04-08T12:23:00;23.60;60.30
45339;DHT22;31071;51.478;5.710;2023-04-08T12:25:26;24.60;58.80
45339;DHT22;31071;51.478;5.710;2023-04-08T12:27:52;24.40;54.40
45339;DHT22;31071;51.478;5.710;2023-04-08T12:30:17;23.80;55.10
45339;DHT22;31071;51.478;5.710;2023-04-08T12:32:43;23.20;55.10
45339;DHT22;31071;51.478;5.710;2023-04-08T12:35:10;23.10;56.90
45339;DHT22;31071;51.478;5.710;2023-04-08T12:37:35;23.70;54.80
45339;DHT22;31071;51.478;5.710;2023-04-08T12:40:01;24.60;57.80
45339;DHT22;31071;51.478;5.710;2023-04-08T12:42:26;25.00;51.70
45339;DHT22;31071;51.478;5.710;2023-04-08T12:44:52;24.10;52.60
45339;DHT22;31071;51.478;5.710;2023-04-08T12:47:18;22.50;55.10
45339;DHT22;31071;51.478;5.710;2023-04-08T12:49:43;21.30;57.60
45339;DHT22;31071;51.478;5.710;2023-04-08T12:52:09;20.30;60.30
45339;DHT22;31071;51.478;5.710;2023-04-08T12:54:34;19.70;62.30
45339;DHT22;31071;51.478;5.710;2023-04-08T12:57:00;19.30;64.30
45339;DHT22;31071;51.478;5.710;2023-04-08T12:59:27;18.60;64.60
45339;DHT22;31071;51.478;5.710;2023-04-08T13:01:52;18.40;68.40
45339;DHT22;31071;51.478;5.710;2023-04-08T13:04:18;18.20;69.00
45339;DHT22;31071;51.478;5.710;2023-04-08T13:06:44;18.10;70.10
45339;DHT22;31071;51.478;5.710;2023-04-08T13:09:10;18.00;65.30
45339;DHT22;31071;51.478;5.710;2023-04-08T13:11:36;17.90;70.40
45339;DHT22;31071;51.478;5.710;2023-04-08T13:14:01;17.90;68.60
45339;DHT22;31071;51.478;5.710;2023-04-08T13:16:27;17.60;68.90
45339;DHT22;31071;51.478;5.710;2023-04-08T13:18:52;17.10;70.00
45339;DHT22;31071;51.478;5.710;2023-04-08T13:21:18;18.20;72.10
45339;DHT22;31071;51.478;5.710;2023-04-08T13:23:44;17.10;68.50
45339;DHT22;31071;51.478;5.710;2023-04-08T13:26:11;16.90;67.70
45339;DHT22;31071;51.478;5.710;2023-04-08T13:28:36;16.80;69.10
45339;DHT22;31071;51.478;5.710;2023-04-08T13:31:02;16.40;69.40
45339;DHT22;31071;51.478;5.710;2023-04-08T13:33:27;16.40;68.00
45339;DHT22;31071;51.478;5.710;2023-04-08T13:35:53;16.40;68.40
45339;DHT22;31071;51.478;5.710;2023-04-08T13:38:18;16.90;68.60
45339;DHT22;31071;51.478;5.710;2023-04-08T13:40:44;16.20;68.80
45339;DHT22;31071;51.478;5.710;2023-04-08T13:43:09;16.10;72.30
45339;DHT22;31071;51.478;5.710;2023-04-08T13:45:35;16.60;70.30
45339;DHT22;31071;51.478;5.710;2023-04-08T13:48:00;16.20;70.80
45339;DHT22;31071;51.478;5.710;2023-04-08T13:50:26;16.20;69.30
45339;DHT22;31071;51.478;5.710;2023-04-08T13:52:51;16.40;69.50
45339;DHT22;31071;51.478;5.710;2023-04-08T13:55:17;16.40;69.30
45339;DHT22;31071;51.478;5.710;2023-04-08T13:57:43;16.40;69.80
45339;DHT22;31071;51.478;5.710;2023-04-08T14:00:08;16.30;67.90
45339;DHT22;31071;51.478;5.710;2023-04-08T14:02:35;16.00;71.20
45339;DHT22;31071;51.478;5.710;2023-04-08T14:05:00;16.50;68.60
45339;DHT22;31071;51.478;5.710;2023-04-08T14:07:26;17.90;64.20
45339;DHT22;31071;51.478;5.710;2023-04-08T14:09:51;19.70;60.80
45339;DHT22;31071;51.478;5.710;2023-04-08T14:12:17;20.50;58.30
45339;DHT22;31071;51.478;5.710;2023-04-08T14:14:42;22.20;58.10
45339;DHT22;31071;51.478;5.710;2023-04-08T14:17:08;21.70;55.10
45339;DHT22;31071;51.478;5.710;2023-04-08T14:19:33;21.80;53.90
45339;DHT22;31071;51.478;5.710;2023-04-08T14:21:59;22.00;53.40
45339;DHT22;31071;51.478;5.710;2023-04-08T14:24:25;20.80;51.20
45339;DHT22;31071;51.478;5.710;2023-04-08T14:26:51;20.20;52.10
45339;DHT22;31071;51.478;5.710;2023-04-08T14:29:16;19.60;55.50
45339;DHT22;31071;51.478;5.710;2023-04-08T14:31:42;19.60;58.60
45339;DHT22;31071;51.478;5.710;2023-04-08T14:34:07;18.00;59.40
45339;DHT22;31071;51.478;5.710;2023-04-08T14:36:33;17.80;59.50
45339;DHT22;31071;51.478;5.710;2023-04-08T14:38:58;19.80;63.00
45339;DHT22;31071;51.478;5.710;2023-04-08T14:41:24;16.70;63.10
45339;DHT22;31071;51.478;5.710;2023-04-08T14:43:51;16.40;62.80
45339;DHT22;31071;51.478;5.710;2023-04-08T14:46:17;15.90;63.10
45339;DHT22;31071;51.478;5.710;2023-04-08T14:48:42;15.90;64.50
45339;DHT22;31071;51.478;5.710;2023-04-08T14:51:08;15.80;67.00
45339;DHT22;31071;51.478;5.710;2023-04-08T14:53:33;15.80;65.70
45339;DHT22;31071;51.478;5.710;2023-04-08T14:56:00;15.80;67.30
45339;DHT22;31071;51.478;5.710;2023-04-08T14:58:26;15.80;63.20
45339;DHT22;31071;51.478;5.710;2023-04-08T15:00:51;17.50;64.40
45339;DHT22;31071;51.478;5.710;2023-04-08T15:03:17;15.80;65.20
45339;DHT22;31071;51.478;5.710;2023-04-08T15:05:43;15.90;64.40
45339;DHT22;31071;51.478;5.710;2023-04-08T15:08:09;16.00;67.20
45339;DHT22;31071;51.478;5.710;2023-04-08T15:10:35;17.10;64.90
45339;DHT22;31071;51.478;5.710;2023-04-08T15:13:01;16.70;64.00
45339;DHT22;31071;51.478;5.710;2023-04-08T15:15:26;15.90;63.40
45339;DHT22;31071;51.478;5.710;2023-04-08T15:17:52;15.70;64.80
45339;DHT22;31071;51.478;5.710;2023-04-08T15:20:18;15.90;61.00
45339;DHT22;31071;51.478;5.710;2023-04-08T15:22:44;16.00;62.80
45339;DHT22;31071;51.478;5.710;2023-04-08T15:25:10;16.40;63.80
45339;DHT22;31071;51.478;5.710;2023-04-08T15:27:35;16.60;61.90
45339;DHT22;31071;51.478;5.710;2023-04-08T15:30:02;16.60;63.80
45339;DHT22;31071;51.478;5.710;2023-04-08T15:32:28;16.40;58.30
45339;DHT22;31071;51.478;5.710;2023-04-08T15:34:53;16.30;63.60
45339;DHT22;31071;51.478;5.710;2023-04-08T15:37:19;16.10;63.20
45339;DHT22;31071;51.478;5.710;2023-04-08T15:39:47;16.10;61.50
45339;DHT22;31071;51.478;5.710;2023-04-08T15:42:12;16.10;63.50
45339;DHT22;31071;51.478;5.710;2023-04-08T15:44:38;17.10;64.60
45339;DHT22;31071;51.478;5.710;2023-04-08T15:47:03;17.30;63.10
45339;DHT22;31071;51.478;5.710;2023-04-08T15:49:30;16.30;65.30
45339;DHT22;31071;51.478;5.710;2023-04-08T15:51:55;16.40;65.20
45339;DHT22;31071;51.478;5.710;2023-04-08T15:54:21;16.40;68.00
45339;DHT22;31071;51.478;5.710;2023-04-08T15:56:46;16.60;70.20
45339;DHT22;31071;51.478;5.710;2023-04-08T15:59:12;16.50;69.00